Clifford A. Barnes — WRN5495 — position and weather

sailwx.info

Track history (hours):
 
Tides and Currents Weather Stations Pressure Air Temp Water Temp Dewpoint Dewpoint Depression Visibility Wind Speed Wind Dir Waves Ship Positions

Oceanographic research ship Clifford A. Barnes (USA)

Ship's website: http://www.ocean.washington.edu/vessels/CAB/cab.html

Detailed information on ship capabilities available from University of Delaware's Ocean Information Center.

Owner: UNIVERSITY OF WASHINGTON, SEATTLE, WA. More information available from US FCC via Universal Licensing System.

Last reported at 2019-Aug-23 04:14 UTC. Time now 2019-Aug-24 08:48 UTC.
Position N 38°06' W 122°16'.

Length 22 m; draft 2.1 m.

Type: Pleasure craft. MMSI: 366918910.

Date/timePositionNaut miles runAvg speedWind from/ knotsBaromVisibWave heightAir tempDewpointWater temp
2019-Aug-23 04:14N 38°06' W 122°16'0 0.0
2019-Aug-23 03:59N 38°06' W 122°16'0 0.5
2019-Aug-23 03:24N 38°06' W 122°16'3 6.7
2019-Aug-23 03:00N 38°04' W 122°14'4 6.1
2019-Aug-23 02:23N 38°02' W 122°10'0 0.4
2019-Aug-23 01:49N 38°02' W 122°10'0 0.0
2019-Aug-23 01:30N 38°02' W 122°10'0 0.0
2019-Aug-23 00:31N 38°02' W 122°10'0 0.0
2019-Aug-22 23:33N 38°02' W 122°10'0 0.0
2019-Aug-22 23:26N 38°02' W 122°10'0 0.0
2019-Aug-22 23:00N 38°02' W 122°10'0 0.0
2019-Aug-22 22:06N 38°02' W 122°10'0 0.0
2019-Aug-22 21:56N 38°02' W 122°10'0 0.0
2019-Aug-22 21:28N 38°02' W 122°10'3 6.3
2019-Aug-22 20:58N 38°04' W 122°13'0 0.0
2019-Aug-22 04:54N 38°04' W 122°14'1 1.2
2019-Aug-22 04:25N 38°03' W 122°13'  
Track history (hours):
 
Tides and Currents Weather Stations Pressure Air Temp Water Temp Dewpoint Dewpoint Depression Visibility Wind Speed Wind Dir Waves Ship Positions

Oceanographic research ship Clifford A. Barnes (USA)

Ship's website: http://www.ocean.washington.edu/vessels/CAB/cab.html

Detailed information on ship capabilities available from University of Delaware's Ocean Information Center.

Owner: UNIVERSITY OF WASHINGTON, SEATTLE, WA. More information available from US FCC via Universal Licensing System.

Last reported at 2019-Aug-23 04:14 UTC. Time now 2019-Aug-24 08:48 UTC.
Position N 38°06' W 122°16'.

Length 22 m; draft 2.1 m.

Type: Pleasure craft. MMSI: 366918910.

Date/timePositionNaut miles runAvg speedWind from/ knotsBaromVisibWave heightAir tempDewpointWater temp
2019-Aug-23 04:14N 38°06' W 122°16'0 0.0
2019-Aug-23 03:59N 38°06' W 122°16'0 0.5
2019-Aug-23 03:24N 38°06' W 122°16'3 6.7
2019-Aug-23 03:00N 38°04' W 122°14'4 6.1
2019-Aug-23 02:23N 38°02' W 122°10'0 0.4
2019-Aug-23 01:49N 38°02' W 122°10'0 0.0
2019-Aug-23 01:30N 38°02' W 122°10'0 0.0
2019-Aug-23 00:31N 38°02' W 122°10'0 0.0
2019-Aug-22 23:33N 38°02' W 122°10'0 0.0
2019-Aug-22 23:26N 38°02' W 122°10'0 0.0
2019-Aug-22 23:00N 38°02' W 122°10'0 0.0
2019-Aug-22 22:06N 38°02' W 122°10'0 0.0
2019-Aug-22 21:56N 38°02' W 122°10'0 0.0
2019-Aug-22 21:28N 38°02' W 122°10'3 6.3
2019-Aug-22 20:58N 38°04' W 122°13'0 0.0
2019-Aug-22 04:54N 38°04' W 122°14'1 1.2
2019-Aug-22 04:25N 38°03' W 122°13'  

Dump ship's entire track history